Time;durP1;ratioP1;P1;durP2;ratioP2;P2;SDS_P1;SDS_P2;PMS_P1;PMS_P2;Temp;Humidity;BMP_temperature;BMP_pressure;BME280_temperature;BME280_humidity;BME280_pressure;Samples;Min_cycle;Max_cycle;Signal;HPM_P1;HPM_P2
2022/12/24 00:00:55;;;;;;;;;;;;;;;;;;5101535;28;2239;-74
2022/12/24 00:03:21;;;;;;;;;;;;;;;;;;5105425;28;2182;-74
2022/12/24 00:05:48;;;;;;;;;;;;;;;;;;5105589;28;1914;-74
2022/12/24 00:08:14;;;;;;;;;;;;;;;;;;5113222;28;1063;-73
2022/12/24 00:10:41;;;;;;;;;;;;;;;;;;5094461;28;1323;-74
2022/12/24 00:13:07;;;;;;;;;;;;;;;;;;5047714;28;880;-73
2022/12/24 00:15:34;;;;;;;;;;;;;;;;;;5048550;28;900;-74
2022/12/24 00:18:00;;;;;;;;;;;;;;;;;;5045828;28;888;-74
2022/12/24 00:20:27;;;;;;;;;;;;;;;;;;5041121;28;1371;-74
2022/12/24 00:22:55;;;;;;;;;;;;;;;;;;5046439;28;806;-73
2022/12/24 00:25:22;;;;;;;;;;;;;;;;;;5044911;28;928;-75
2022/12/24 00:27:48;;;;;;;;;;;;;;;;;;5028845;28;2018;-73
2022/12/24 00:30:15;;;;;;;;;;;;;;;;;;5033338;28;1277;-73
2022/12/24 00:32:41;;;;;;;;;;;;;;;;;;5049369;28;952;-74
2022/12/24 00:35:08;;;;;;;;;;;;;;;;;;5046043;28;904;-72
2022/12/24 00:37:34;;;;;;;;;;;;;;;;;;5041778;28;892;-72
2022/12/24 00:40:02;;;;;;;;;;;;;;;;;;5041554;28;1348;-73
2022/12/24 00:42:29;;;;;;;;;;;;;;;;;;5046083;28;953;-72
2022/12/24 00:44:55;;;;;;;;;;;;;;;;;;5048498;28;938;-74
2022/12/24 00:47:21;;;;;;;;;;;;;;;;;;5044661;28;1942;-73
2022/12/24 00:49:48;;;;;;;;;;;;;;;;;;5045571;28;1269;-74
2022/12/24 00:52:14;;;;;;;;;;;;;;;;;;5043339;28;917;-72
2022/12/24 00:54:41;;;;;;;;;;;;;;;;;;5041329;28;877;-73
2022/12/24 00:57:09;;;;;;;;;;;;;;;;;;5021528;28;1147;-73
2022/12/24 00:59:35;;;;;;;;;;;;;;;;;;5024252;28;1246;-73
2022/12/24 01:02:01;;;;;;;;;;;;;;;;;;5046345;28;1418;-75
2022/12/24 01:07:12;;;;;;;;;;;;;;;;;;5006574;28;1937;-74
2022/12/24 01:09:38;;;;;;;;;;;;;;;;;;5020819;28;1102;-74
2022/12/24 01:12:05;;;;;;;;;;;;;;;;;;5028362;28;1321;-73
2022/12/24 01:14:33;;;;;;;;;;;;;;;;;;5043249;28;877;-74
2022/12/24 01:16:59;;;;;;;;;;;;;;;;;;5025927;28;1134;-73
2022/12/24 01:19:26;;;;;;;;;;;;;;;;;;5043948;28;861;-72
2022/12/24 01:21:52;;;;;;;;;;;;;;;;;;5022916;28;1449;-74
2022/12/24 01:24:19;;;;;;;;;;;;;;;;;;5043260;28;1123;-74
2022/12/24 01:26:45;;;;;;;;;;;;;;;;;;5045146;28;1933;-74
2022/12/24 01:29:12;;;;;;;;;;;;;;;;;;5021887;28;1031;-74
2022/12/24 01:31:40;;;;;;;;;;;;;;;;;;5040826;28;1293;-73
2022/12/24 01:34:06;;;;;;;;;;;;;;;;;;5047010;28;912;-74
2022/12/24 01:36:33;;;;;;;;;;;;;;;;;;5046794;28;964;-75
2022/12/24 01:38:59;;;;;;;;;;;;;;;;;;5043126;28;900;-75
2022/12/24 01:44:19;;;;;;;;;;;;;;;;;;5035285;28;1011;-74
2022/12/24 01:46:47;;;;;;;;;;;;;;;;;;5024060;28;1948;-76
2022/12/24 01:49:14;;;;;;;;;;;;;;;;;;5081778;28;900;-75
2022/12/24 01:51:41;;;;;;;;;;;;;;;;;;5084606;28;1333;-75
2022/12/24 01:54:08;;;;;;;;;;;;;;;;;;5073007;28;1191;-74
2022/12/24 01:56:34;;;;;;;;;;;;;;;;;;5091296;28;1222;-75
2022/12/24 01:59:02;;;;;;;;;;;;;;;;;;5090760;28;1511;-75
2022/12/24 02:01:28;;;;;;;;;;;;;;;;;;5092508;28;1311;-74
2022/12/24 02:03:56;;;;;;;;;;;;;;;;;;5092931;28;1150;-75
2022/12/24 02:06:22;;;;;;;;;;;;;;;;;;5110739;28;1919;-75
2022/12/24 02:08:48;;;;;;;;;;;;;;;;;;5111558;28;1063;-73
2022/12/24 02:11:15;;;;;;;;;;;;;;;;;;5092570;28;1375;-75
2022/12/24 02:13:42;;;;;;;;;;;;;;;;;;5102694;28;1130;-73
2022/12/24 02:16:10;;;;;;;;;;;;;;;;;;5111899;28;1400;-75
2022/12/24 02:18:38;;;;;;;;;;;;;;;;;;5093280;28;1198;-75
2022/12/24 02:21:10;;;;;;;;;;;;;;;;;;5111015;28;1321;-75
2022/12/24 02:23:41;;;;;;;;;;;;;;;;;;5110749;28;1079;-76
2022/12/24 02:26:13;;;;;;;;;;;;;;;;;;5108813;28;1622;-75
2022/12/24 02:28:44;;;;;;;;;;;;;;;;;;5090676;28;1913;-76
2022/12/24 02:31:12;;;;;;;;;;;;;;;;;;5082869;28;1392;-74
2022/12/24 02:33:38;;;;;;;;;;;;;;;;;;5110213;28;873;-75
2022/12/24 02:36:05;;;;;;;;;;;;;;;;;;5093209;28;1242;-75
2022/12/24 02:38:32;;;;;;;;;;;;;;;;;;5092969;28;1360;-75
2022/12/24 02:40:59;;;;;;;;;;;;;;;;;;5105336;28;1406;-75
2022/12/24 02:43:26;;;;;;;;;;;;;;;;;;5087363;28;1343;-75
2022/12/24 02:45:54;;;;;;;;;;;;;;;;;;5090063;28;1406;-75
2022/12/24 02:48:21;;;;;;;;;;;;;;;;;;5089802;28;1959;-74
2022/12/24 02:50:55;;;;;;;;;;;;;;;;;;5073144;28;1385;-75
2022/12/24 02:53:21;;;;;;;;;;;;;;;;;;5093765;28;1067;-76
2022/12/24 02:55:48;;;;;;;;;;;;;;;;;;5094230;28;1114;-75
2022/12/24 02:58:18;;;;;;;;;;;;;;;;;;5094050;28;774;-76
2022/12/24 03:00:47;;;;;;;;;;;;;;;;;;5094430;28;1308;-75
2022/12/24 03:03:17;;;;;;;;;;;;;;;;;;5111214;28;1099;-75
2022/12/24 03:05:46;;;;;;;;;;;;;;;;;;5114585;28;1040;-75
2022/12/24 03:08:13;;;;;;;;;;;;;;;;;;5114504;28;1926;-75
2022/12/24 03:10:41;;;;;;;;;;;;;;;;;;5096076;28;1323;-75
2022/12/24 03:13:08;;;;;;;;;;;;;;;;;;5105084;28;1664;-75
2022/12/24 03:15:34;;;;;;;;;;;;;;;;;;5114070;28;1167;-76
2022/12/24 03:18:01;;;;;;;;;;;;;;;;;;5112403;28;1042;-76
2022/12/24 03:20:29;;;;;;;;;;;;;;;;;;5112339;28;1326;-76
2022/12/24 03:22:57;;;;;;;;;;;;;;;;;;5111049;28;813;-74
2022/12/24 03:25:24;;;;;;;;;;;;;;;;;;5112414;28;841;-75
2022/12/24 03:27:50;;;;;;;;;;;;;;;;;;5112428;28;1917;-76
2022/12/24 03:30:17;;;;;;;;;;;;;;;;;;5094361;28;1392;-75
2022/12/24 03:32:43;;;;;;;;;;;;;;;;;;5112129;28;1074;-75
2022/12/24 03:35:10;;;;;;;;;;;;;;;;;;5113785;28;1126;-76
2022/12/24 03:37:36;;;;;;;;;;;;;;;;;;5113538;28;1033;-74
2022/12/24 03:40:04;;;;;;;;;;;;;;;;;;5113713;28;1277;-76
2022/12/24 03:42:30;;;;;;;;;;;;;;;;;;5106025;28;991;-76
2022/12/24 03:44:56;;;;;;;;;;;;;;;;;;5090559;28;1183;-75
2022/12/24 03:47:23;;;;;;;;;;;;;;;;;;5110200;28;1929;-75
2022/12/24 03:49:49;;;;;;;;;;;;;;;;;;5112775;28;1402;-76
2022/12/24 03:52:15;;;;;;;;;;;;;;;;;;5112850;28;1047;-75
2022/12/24 03:54:41;;;;;;;;;;;;;;;;;;5095507;28;1252;-77
2022/12/24 03:57:09;;;;;;;;;;;;;;;;;;5095652;28;1563;-75
2022/12/24 03:59:35;;;;;;;;;;;;;;;;;;5113571;28;1455;-75
2022/12/24 04:02:01;;;;;;;;;;;;;;;;;;5113167;28;1354;-75
2022/12/24 04:04:27;;;;;;;;;;;;;;;;;;5095887;28;1629;-76
2022/12/24 04:06:53;;;;;;;;;;;;;;;;;;5113365;28;937;-75
2022/12/24 04:09:19;;;;;;;;;;;;;;;;;;5113289;28;1975;-75
2022/12/24 04:11:46;;;;;;;;;;;;;;;;;;5086592;28;1738;-75
2022/12/24 04:14:13;;;;;;;;;;;;;;;;;;5094970;28;1149;-76
2022/12/24 04:16:39;;;;;;;;;;;;;;;;;;5104813;28;1070;-76
2022/12/24 04:19:06;;;;;;;;;;;;;;;;;;5112965;28;921;-76
2022/12/24 04:21:32;;;;;;;;;;;;;;;;;;5109693;28;1539;-76
2022/12/24 04:23:58;;;;;;;;;;;;;;;;;;5105159;28;1715;-76
2022/12/24 04:26:24;;;;;;;;;;;;;;;;;;5099651;28;1395;-76
2022/12/24 04:28:50;;;;;;;;;;;;;;;;;;5077432;28;1914;-74
2022/12/24 04:31:18;;;;;;;;;;;;;;;;;;5108816;28;1502;-74
2022/12/24 04:33:44;;;;;;;;;;;;;;;;;;5103985;28;1391;-75
2022/12/24 04:36:11;;;;;;;;;;;;;;;;;;5082499;28;2060;-76
2022/12/24 04:38:38;;;;;;;;;;;;;;;;;;5095854;28;1574;-75
2022/12/24 04:41:05;;;;;;;;;;;;;;;;;;5102735;28;1477;-73
2022/12/24 04:43:31;;;;;;;;;;;;;;;;;;5081663;28;1213;-75
2022/12/24 04:46:03;;;;;;;;;;;;;;;;;;5071997;28;1262;-76
2022/12/24 04:48:30;;;;;;;;;;;;;;;;;;5091688;28;1977;-76
2022/12/24 04:50:57;;;;;;;;;;;;;;;;;;5091682;28;1339;-76
2022/12/24 04:53:23;;;;;;;;;;;;;;;;;;5091283;28;1059;-74
2022/12/24 04:55:49;;;;;;;;;;;;;;;;;;5091866;28;799;-74
2022/12/24 04:58:15;;;;;;;;;;;;;;;;;;5091835;28;1072;-77
2022/12/24 05:00:41;;;;;;;;;;;;;;;;;;5091815;28;1355;-75
2022/12/24 05:03:08;;;;;;;;;;;;;;;;;;5097075;28;1110;-75
2022/12/24 05:05:35;;;;;;;;;;;;;;;;;;5112169;28;1071;-76
2022/12/24 05:08:01;;;;;;;;;;;;;;;;;;5110750;28;1913;-75
2022/12/24 05:10:27;;;;;;;;;;;;;;;;;;5112962;28;1288;-74
2022/12/24 05:12:54;;;;;;;;;;;;;;;;;;5103605;28;1130;-76
2022/12/24 05:15:20;;;;;;;;;;;;;;;;;;5092230;28;1059;-76
2022/12/24 05:17:46;;;;;;;;;;;;;;;;;;5092503;28;1180;-75
2022/12/24 05:20:12;;;;;;;;;;;;;;;;;;5092265;28;1248;-74
2022/12/24 05:28:07;;;;;;;;;;;;;;;;;;5073674;28;1980;-72
2022/12/24 05:30:33;;;;;;;;;;;;;;;;;;5073653;28;1319;-73
2022/12/24 05:33:00;;;;;;;;;;;;;;;;;;5091308;28;1083;-75
2022/12/24 05:35:26;;;;;;;;;;;;;;;;;;5074045;28;1160;-75
2022/12/24 05:37:56;;;;;;;;;;;;;;;;;;5074187;28;1138;-75
2022/12/24 05:40:23;;;;;;;;;;;;;;;;;;5093085;28;1269;-74
2022/12/24 05:42:49;;;;;;;;;;;;;;;;;;5104033;28;1067;-76
2022/12/24 05:45:15;;;;;;;;;;;;;;;;;;5111918;28;1067;-76
2022/12/24 05:47:42;;;;;;;;;;;;;;;;;;5093949;28;1914;-74
2022/12/24 05:50:09;;;;;;;;;;;;;;;;;;5112396;28;1305;-74
2022/12/24 05:52:35;;;;;;;;;;;;;;;;;;5111707;28;1064;-76
2022/12/24 05:55:02;;;;;;;;;;;;;;;;;;5093303;28;1303;-75
2022/12/24 05:57:29;;;;;;;;;;;;;;;;;;5110640;28;1466;-73
2022/12/24 05:59:55;;;;;;;;;;;;;;;;;;5110542;28;1995;-76
2022/12/24 06:02:21;;;;;;;;;;;;;;;;;;5101268;28;1379;-75
2022/12/24 06:04:47;;;;;;;;;;;;;;;;;;5096100;28;1430;-76
2022/12/24 06:07:13;;;;;;;;;;;;;;;;;;5099759;28;2014;-76
2022/12/24 06:09:40;;;;;;;;;;;;;;;;;;5088152;28;1917;-76
2022/12/24 06:12:08;;;;;;;;;;;;;;;;;;5022111;28;1421;-74
2022/12/24 06:14:34;;;;;;;;;;;;;;;;;;5029531;28;1055;-75
2022/12/24 06:17:01;;;;;;;;;;;;;;;;;;5033478;28;1534;-75
2022/12/24 06:19:27;;;;;;;;;;;;;;;;;;5027726;28;1363;-75
2022/12/24 06:21:54;;;;;;;;;;;;;;;;;;5013598;28;1385;-74
2022/12/24 06:24:21;;;;;;;;;;;;;;;;;;5027598;28;1170;-74
2022/12/24 06:26:48;;;;;;;;;;;;;;;;;;5005991;28;1655;-74
2022/12/24 06:29:16;;;;;;;;;;;;;;;;;;5026210;28;2454;-74
2022/12/24 06:31:43;;;;;;;;;;;;;;;;;;5020909;28;1625;-73
2022/12/24 06:34:09;;;;;;;;;;;;;;;;;;5045426;28;880;-74
2022/12/24 06:36:35;;;;;;;;;;;;;;;;;;5044076;28;837;-74
2022/12/24 06:39:02;;;;;;;;;;;;;;;;;;5050159;28;893;-75
2022/12/24 06:41:28;;;;;;;;;;;;;;;;;;5027980;28;1308;-74
2022/12/24 06:43:55;;;;;;;;;;;;;;;;;;5050360;28;893;-73
2022/12/24 06:46:23;;;;;;;;;;;;;;;;;;5028529;28;1073;-73
2022/12/24 06:48:49;;;;;;;;;;;;;;;;;;5032711;28;1934;-73
2022/12/24 06:51:18;;;;;;;;;;;;;;;;;;5062685;28;1570;-74
2022/12/24 06:53:45;;;;;;;;;;;;;;;;;;5030123;28;1262;-73
2022/12/24 06:56:12;;;;;;;;;;;;;;;;;;5026241;28;1301;-74
2022/12/24 06:58:39;;;;;;;;;;;;;;;;;;5030919;28;1243;-75
2022/12/24 07:01:06;;;;;;;;;;;;;;;;;;5027095;28;1403;-73
2022/12/24 07:03:34;;;;;;;;;;;;;;;;;;5044573;28;1050;-75
2022/12/24 07:06:01;;;;;;;;;;;;;;;;;;5050429;28;1637;-74
2022/12/24 07:08:28;;;;;;;;;;;;;;;;;;5049587;28;2008;-75
2022/12/24 07:10:54;;;;;;;;;;;;;;;;;;5049133;28;1394;-76
2022/12/24 07:13:21;;;;;;;;;;;;;;;;;;5027088;28;1390;-76
2022/12/24 07:15:47;;;;;;;;;;;;;;;;;;5051212;28;912;-75
2022/12/24 07:18:14;;;;;;;;;;;;;;;;;;5053001;28;833;-75
2022/12/24 07:20:42;;;;;;;;;;;;;;;;;;5048461;28;1332;-75
2022/12/24 07:23:09;;;;;;;;;;;;;;;;;;5022717;28;1126;-74
2022/12/24 07:25:35;;;;;;;;;;;;;;;;;;5028759;28;1113;-74
2022/12/24 07:28:02;;;;;;;;;;;;;;;;;;5032445;28;1999;-74
2022/12/24 07:30:28;;;;;;;;;;;;;;;;;;5023879;28;1300;-75
2022/12/24 07:32:55;;;;;;;;;;;;;;;;;;5026501;28;929;-75
2022/12/24 07:35:21;;;;;;;;;;;;;;;;;;5028441;28;873;-75
2022/12/24 07:37:49;;;;;;;;;;;;;;;;;;5011411;28;894;-74
2022/12/24 07:40:16;;;;;;;;;;;;;;;;;;5026478;28;1387;-74
2022/12/24 07:42:42;;;;;;;;;;;;;;;;;;5038799;28;1626;-75
2022/12/24 07:45:09;;;;;;;;;;;;;;;;;;5046336;28;1066;-74
2022/12/24 07:47:36;;;;;;;;;;;;;;;;;;5032126;28;865;-75
2022/12/24 07:50:02;;;;;;;;;;;;;;;;;;5024433;28;1958;-76
2022/12/24 07:52:29;;;;;;;;;;;;;;;;;;5008811;28;912;-75
2022/12/24 07:54:56;;;;;;;;;;;;;;;;;;5029521;28;1051;-75
2022/12/24 07:57:23;;;;;;;;;;;;;;;;;;5024308;28;877;-75
2022/12/24 07:59:49;;;;;;;;;;;;;;;;;;5028576;28;1368;-76
2022/12/24 08:02:16;;;;;;;;;;;;;;;;;;5015657;28;1254;-76
2022/12/24 08:04:42;;;;;;;;;;;;;;;;;;5048968;28;923;-75
2022/12/24 08:07:09;;;;;;;;;;;;;;;;;;5048259;28;884;-75
2022/12/24 08:09:35;;;;;;;;;;;;;;;;;;5050364;28;1934;-76
2022/12/24 08:12:04;;;;;;;;;;;;;;;;;;5047053;28;1261;-76
2022/12/24 08:14:30;;;;;;;;;;;;;;;;;;5045147;28;911;-75
2022/12/24 08:16:57;;;;;;;;;;;;;;;;;;5048332;28;884;-76
2022/12/24 08:19:23;;;;;;;;;;;;;;;;;;5049722;28;920;-75
2022/12/24 08:21:50;;;;;;;;;;;;;;;;;;5047400;28;1355;-76
2022/12/24 08:24:16;;;;;;;;;;;;;;;;;;5047147;28;885;-76
2022/12/24 08:26:43;;;;;;;;;;;;;;;;;;5049231;28;833;-75
2022/12/24 08:29:11;;;;;;;;;;;;;;;;;;5032424;28;1999;-76
2022/12/24 08:31:37;;;;;;;;;;;;;;;;;;5024706;28;1268;-76
2022/12/24 08:34:04;;;;;;;;;;;;;;;;;;5048407;28;919;-76
2022/12/24 08:36:30;;;;;;;;;;;;;;;;;;5048470;28;869;-75
2022/12/24 08:38:57;;;;;;;;;;;;;;;;;;5031407;28;936;-76
2022/12/24 08:41:23;;;;;;;;;;;;;;;;;;5026093;28;1341;-76
2022/12/24 08:43:49;;;;;;;;;;;;;;;;;;5027585;28;908;-75
2022/12/24 08:46:17;;;;;;;;;;;;;;;;;;5029309;28;964;-76
2022/12/24 08:48:44;;;;;;;;;;;;;;;;;;5025342;28;1933;-75
2022/12/24 08:51:11;;;;;;;;;;;;;;;;;;5034600;28;1262;-75
2022/12/24 08:53:38;;;;;;;;;;;;;;;;;;5031440;28;1179;-76
2022/12/24 08:56:04;;;;;;;;;;;;;;;;;;5008411;28;1260;-74
2022/12/24 08:58:31;;;;;;;;;;;;;;;;;;5029194;28;1246;-76
2022/12/24 09:00:57;;;;;;;;;;;;;;;;;;5006388;28;1384;-73
2022/12/24 09:03:25;;;;;;;;;;;;;;;;;;5006763;28;936;-76
2022/12/24 09:05:52;;;;;;;;;;;;;;;;;;5028308;28;901;-75
2022/12/24 09:08:19;;;;;;;;;;;;;;;;;;5027399;28;790;-75
2022/12/24 09:10:46;;;;;;;;;;;;;;;;;;5030901;28;1933;-75
2022/12/24 09:13:12;;;;;;;;;;;;;;;;;;5045823;28;998;-74
2022/12/24 09:15:39;;;;;;;;;;;;;;;;;;5047819;28;857;-75
2022/12/24 09:18:06;;;;;;;;;;;;;;;;;;5043715;28;933;-75
2022/12/24 09:20:34;;;;;;;;;;;;;;;;;;5044938;28;1325;-77
2022/12/24 09:23:00;;;;;;;;;;;;;;;;;;5025649;28;1181;-76
2022/12/24 09:25:26;;;;;;;;;;;;;;;;;;5041677;28;984;-75
2022/12/24 09:27:53;;;;;;;;;;;;;;;;;;5048338;28;922;-75
2022/12/24 09:30:20;;;;;;;;;;;;;;;;;;5046558;28;1934;-75
2022/12/24 09:32:46;;;;;;;;;;;;;;;;;;5045548;28;1199;-79
2022/12/24 09:35:13;;;;;;;;;;;;;;;;;;5041638;28;1200;-74
2022/12/24 09:37:41;;;;;;;;;;;;;;;;;;5048920;28;995;-76
2022/12/24 09:40:09;;;;;;;;;;;;;;;;;;5046949;28;1352;-76
2022/12/24 09:42:39;;;;;;;;;;;;;;;;;;5039008;28;912;-76
2022/12/24 09:45:07;;;;;;;;;;;;;;;;;;5048573;28;975;-76
2022/12/24 09:47:35;;;;;;;;;;;;;;;;;;5048257;28;869;-75
2022/12/24 09:50:02;;;;;;;;;;;;;;;;;;5045241;28;1926;-78
2022/12/24 09:52:29;;;;;;;;;;;;;;;;;;5045457;28;924;-75
2022/12/24 09:54:58;;;;;;;;;;;;;;;;;;5027843;28;1424;-75
2022/12/24 09:57:26;;;;;;;;;;;;;;;;;;5048040;28;862;-75
2022/12/24 09:59:52;;;;;;;;;;;;;;;;;;5044931;28;1280;-76
2022/12/24 10:02:19;;;;;;;;;;;;;;;;;;5047222;28;1332;-77
2022/12/24 10:04:46;;;;;;;;;;;;;;;;;;5032231;28;1234;-76
2022/12/24 10:07:18;;;;;;;;;;;;;;;;;;5050715;28;929;-76
2022/12/24 10:09:47;;;;;;;;;;;;;;;;;;5049118;28;1989;-75
2022/12/24 10:12:17;;;;;;;;;;;;;;;;;;5032981;28;988;-77
2022/12/24 10:14:47;;;;;;;;;;;;;;;;;;5011699;28;1272;-77
2022/12/24 10:17:18;;;;;;;;;;;;;;;;;;5010194;28;1028;-76
2022/12/24 10:19:46;;;;;;;;;;;;;;;;;;5031328;28;877;-76
2022/12/24 10:22:14;;;;;;;;;;;;;;;;;;5032279;28;1238;-77
2022/12/24 10:24:44;;;;;;;;;;;;;;;;;;5009386;28;1199;-77
2022/12/24 10:27:13;;;;;;;;;;;;;;;;;;5008910;28;1172;-76
2022/12/24 10:29:42;;;;;;;;;;;;;;;;;;5010992;28;1989;-76
2022/12/24 10:32:15;;;;;;;;;;;;;;;;;;5010446;28;1365;-74
2022/12/24 10:34:43;;;;;;;;;;;;;;;;;;5026750;28;736;-76
2022/12/24 10:37:11;;;;;;;;;;;;;;;;;;5030806;28;1017;-76
2022/12/24 10:39:37;;;;;;;;;;;;;;;;;;5032898;28;957;-75
2022/12/24 10:42:04;;;;;;;;;;;;;;;;;;5022265;28;1371;-76
2022/12/24 10:44:31;;;;;;;;;;;;;;;;;;5029952;28;990;-77
2022/12/24 10:46:59;;;;;;;;;;;;;;;;;;5010666;28;874;-75
2022/12/24 10:49:31;;;;;;;;;;;;;;;;;;5030887;28;1945;-76
2022/12/24 10:52:00;;;;;;;;;;;;;;;;;;5029738;28;1359;-76
2022/12/24 10:54:27;;;;;;;;;;;;;;;;;;5040188;28;1609;-73
2022/12/24 10:56:55;;;;;;;;;;;;;;;;;;5049613;28;931;-75
2022/12/24 10:59:22;;;;;;;;;;;;;;;;;;5034362;28;1241;-75
2022/12/24 11:01:51;;;;;;;;;;;;;;;;;;5049160;28;1281;-75
2022/12/24 11:04:20;;;;;;;;;;;;;;;;;;5032994;28;1291;-75
2022/12/24 11:06:54;;;;;;;;;;;;;;;;;;5026035;28;1363;-72
2022/12/24 11:09:21;;;;;;;;;;;;;;;;;;5049178;28;1930;-72
2022/12/24 11:11:47;;;;;;;;;;;;;;;;;;5047792;28;1286;-72
2022/12/24 11:14:14;;;;;;;;;;;;;;;;;;5046943;28;869;-72
2022/12/24 11:16:41;;;;;;;;;;;;;;;;;;5034362;28;1026;-73
2022/12/24 11:19:28;;;;;;;;;;;;;;;;;;5006970;28;1632;-72
2022/12/24 11:21:59;;;;;;;;;;;;;;;;;;5008317;28;1365;-71
2022/12/24 11:24:26;;;;;;;;;;;;;;;;;;5038746;28;1023;-74
2022/12/24 11:26:53;;;;;;;;;;;;;;;;;;5050599;28;1030;-74
2022/12/24 11:29:20;;;;;;;;;;;;;;;;;;5045815;28;818;-71
2022/12/24 11:31:47;;;;;;;;;;;;;;;;;;5048712;28;1504;-73
2022/12/24 11:34:17;;;;;;;;;;;;;;;;;;5048644;28;999;-73
2022/12/24 11:36:44;;;;;;;;;;;;;;;;;;5062269;28;873;-73
2022/12/24 11:39:16;;;;;;;;;;;;;;;;;;5113713;28;1111;-72
2022/12/24 11:41:43;;;;;;;;;;;;;;;;;;5087292;28;1481;-73
2022/12/24 11:44:09;;;;;;;;;;;;;;;;;;5100592;28;1423;-73
2022/12/24 11:46:36;;;;;;;;;;;;;;;;;;5106204;28;1168;-73
2022/12/24 11:49:12;;;;;;;;;;;;;;;;;;5114571;28;944;-72
2022/12/24 11:51:39;;;;;;;;;;;;;;;;;;5113852;28;1906;-73
2022/12/24 11:54:06;;;;;;;;;;;;;;;;;;5095542;28;1469;-73
2022/12/24 11:56:35;;;;;;;;;;;;;;;;;;5105934;28;1263;-74
2022/12/24 11:59:03;;;;;;;;;;;;;;;;;;5095086;28;1522;-72
2022/12/24 12:01:30;;;;;;;;;;;;;;;;;;5108416;28;1246;-73
2022/12/24 12:03:57;;;;;;;;;;;;;;;;;;5096364;28;1560;-72
2022/12/24 12:06:25;;;;;;;;;;;;;;;;;;5087889;28;1421;-72
2022/12/24 12:08:52;;;;;;;;;;;;;;;;;;5098061;28;1200;-71
2022/12/24 12:11:18;;;;;;;;;;;;;;;;;;5101694;28;1913;-73
2022/12/24 12:13:46;;;;;;;;;;;;;;;;;;5112232;28;1599;-72
2022/12/24 12:16:14;;;;;;;;;;;;;;;;;;5105941;28;1149;-73
2022/12/24 12:18:41;;;;;;;;;;;;;;;;;;5114152;28;921;-73
2022/12/24 12:21:08;;;;;;;;;;;;;;;;;;5094249;28;1415;-75
2022/12/24 12:23:35;;;;;;;;;;;;;;;;;;5107021;28;1109;-74
2022/12/24 12:26:04;;;;;;;;;;;;;;;;;;5111763;28;1216;-75
2022/12/24 12:28:32;;;;;;;;;;;;;;;;;;5096595;28;1202;-74
2022/12/24 12:31:02;;;;;;;;;;;;;;;;;;5094825;28;1917;-73
2022/12/24 12:33:30;;;;;;;;;;;;;;;;;;5109758;28;1601;-74
2022/12/24 12:35:56;;;;;;;;;;;;;;;;;;5105060;28;1412;-74
2022/12/24 12:38:23;;;;;;;;;;;;;;;;;;5108676;28;1473;-74
2022/12/24 12:40:54;;;;;;;;;;;;;;;;;;5108457;28;1381;-73
2022/12/24 12:43:24;;;;;;;;;;;;;;;;;;5109236;28;1368;-75
2022/12/24 12:45:51;;;;;;;;;;;;;;;;;;5104067;28;1125;-74
2022/12/24 12:48:22;;;;;;;;;;;;;;;;;;5110794;28;1130;-74
2022/12/24 12:50:49;;;;;;;;;;;;;;;;;;5093696;28;1914;-72
2022/12/24 12:53:21;;;;;;;;;;;;;;;;;;5110192;28;1158;-75
2022/12/24 12:55:49;;;;;;;;;;;;;;;;;;5113214;28;1071;-74
2022/12/24 12:58:16;;;;;;;;;;;;;;;;;;5077199;28;1479;-72
2022/12/24 13:00:44;;;;;;;;;;;;;;;;;;5074945;28;1448;-72
2022/12/24 13:03:21;;;;;;;;;;;;;;;;;;5105831;28;1386;-73
2022/12/24 13:06:00;;;;;;;;;;;;;;;;;;5106345;28;1470;-71
2022/12/24 13:08:39;;;;;;;;;;;;;;;;;;5101472;28;1150;-71
2022/12/24 13:11:08;;;;;;;;;;;;;;;;;;5091848;28;1971;-73
2022/12/24 13:13:41;;;;;;;;;;;;;;;;;;5104192;28;1074;-73
2022/12/24 13:16:17;;;;;;;;;;;;;;;;;;5110062;28;1431;-72
2022/12/24 13:18:44;;;;;;;;;;;;;;;;;;5102452;28;1605;-72
2022/12/24 13:21:16;;;;;;;;;;;;;;;;;;5110458;28;1397;-74
2022/12/24 13:23:42;;;;;;;;;;;;;;;;;;5110127;28;1363;-71
2022/12/24 13:26:10;;;;;;;;;;;;;;;;;;5103416;28;1487;-73
2022/12/24 13:28:37;;;;;;;;;;;;;;;;;;5106754;28;1364;-71
2022/12/24 13:31:23;;;;;;;;;;;;;;;;;;5086365;28;1914;-73
2022/12/24 13:33:50;;;;;;;;;;;;;;;;;;5086065;28;992;-73
2022/12/24 13:36:18;;;;;;;;;;;;;;;;;;5043263;28;1038;-74
2022/12/24 13:38:47;;;;;;;;;;;;;;;;;;5029710;28;1606;-73
2022/12/24 13:41:32;;;;;;;;;;;;;;;;;;5039243;28;1352;-73
2022/12/24 13:44:02;;;;;;;;;;;;;;;;;;5043905;28;933;-73
2022/12/24 13:46:48;;;;;;;;;;;;;;;;;;5043875;28;785;-71
2022/12/24 13:49:16;;;;;;;;;;;;;;;;;;5024473;28;874;-72
2022/12/24 13:51:44;;;;;;;;;;;;;;;;;;5027359;28;1946;-72
2022/12/24 13:54:11;;;;;;;;;;;;;;;;;;5009215;28;1629;-73
2022/12/24 13:56:37;;;;;;;;;;;;;;;;;;5042549;28;1511;-73
2022/12/24 13:59:11;;;;;;;;;;;;;;;;;;5043289;28;924;-72
2022/12/24 14:01:38;;;;;;;;;;;;;;;;;;5035446;28;1341;-71
2022/12/24 14:04:05;;;;;;;;;;;;;;;;;;5014383;28;1279;-71
2022/12/24 14:06:32;;;;;;;;;;;;;;;;;;5034467;28;1505;-73
2022/12/24 14:09:05;;;;;;;;;;;;;;;;;;5048836;28;870;-72
2022/12/24 14:11:33;;;;;;;;;;;;;;;;;;5026211;28;1937;-73
2022/12/24 14:14:10;;;;;;;;;;;;;;;;;;5044460;28;1135;-73
2022/12/24 14:16:46;;;;;;;;;;;;;;;;;;5045141;28;1501;-73
2022/12/24 14:19:13;;;;;;;;;;;;;;;;;;5047212;28;1341;-72
2022/12/24 14:21:42;;;;;;;;;;;;;;;;;;5036590;28;1367;-72
2022/12/24 14:24:13;;;;;;;;;;;;;;;;;;5043534;28;956;-73
2022/12/24 14:26:44;;;;;;;;;;;;;;;;;;5047274;28;877;-72
2022/12/24 14:29:14;;;;;;;;;;;;;;;;;;5047912;28;907;-72
2022/12/24 14:31:49;;;;;;;;;;;;;;;;;;5043005;28;1999;-72
2022/12/24 14:34:16;;;;;;;;;;;;;;;;;;5040550;28;861;-73
2022/12/24 14:36:43;;;;;;;;;;;;;;;;;;5044036;28;936;-72
2022/12/24 14:39:10;;;;;;;;;;;;;;;;;;5045639;28;951;-73
2022/12/24 14:41:41;;;;;;;;;;;;;;;;;;5039619;28;1362;-72
2022/12/24 14:44:10;;;;;;;;;;;;;;;;;;5024931;28;962;-73
2022/12/24 14:46:39;;;;;;;;;;;;;;;;;;5046261;28;794;-71
2022/12/24 14:49:07;;;;;;;;;;;;;;;;;;5049858;28;1022;-72
2022/12/24 14:51:35;;;;;;;;;;;;;;;;;;5048447;28;1933;-73
2022/12/24 14:54:20;;;;;;;;;;;;;;;;;;5024218;28;1544;-73
2022/12/24 14:56:48;;;;;;;;;;;;;;;;;;5033097;28;865;-73
2022/12/24 14:59:15;;;;;;;;;;;;;;;;;;5042585;28;1253;-72
2022/12/24 15:01:42;;;;;;;;;;;;;;;;;;5047546;28;1336;-73
2022/12/24 15:04:15;;;;;;;;;;;;;;;;;;5048861;28;927;-73
2022/12/24 15:06:41;;;;;;;;;;;;;;;;;;5050208;28;877;-73
2022/12/24 15:09:10;;;;;;;;;;;;;;;;;;5046206;28;933;-72
2022/12/24 15:11:37;;;;;;;;;;;;;;;;;;5023495;28;1938;-72
2022/12/24 15:14:05;;;;;;;;;;;;;;;;;;5028234;28;1100;-74
2022/12/24 15:16:33;;;;;;;;;;;;;;;;;;5030570;28;1109;-73
2022/12/24 15:19:00;;;;;;;;;;;;;;;;;;5051450;28;916;-72
2022/12/24 15:21:31;;;;;;;;;;;;;;;;;;5050475;28;1278;-73
2022/12/24 15:23:57;;;;;;;;;;;;;;;;;;5049842;28;932;-70
2022/12/24 15:26:25;;;;;;;;;;;;;;;;;;5044333;28;955;-72
2022/12/24 15:28:52;;;;;;;;;;;;;;;;;;5047900;28;1011;-72
2022/12/24 15:31:21;;;;;;;;;;;;;;;;;;5032097;28;1937;-73
2022/12/24 15:33:48;;;;;;;;;;;;;;;;;;5027452;28;1143;-74
2022/12/24 15:36:14;;;;;;;;;;;;;;;;;;5048668;28;889;-75
2022/12/24 15:38:42;;;;;;;;;;;;;;;;;;5028527;28;1172;-72
2022/12/24 15:41:14;;;;;;;;;;;;;;;;;;5042467;28;1681;-73
2022/12/24 15:43:41;;;;;;;;;;;;;;;;;;5047793;28;913;-73
2022/12/24 15:46:07;;;;;;;;;;;;;;;;;;5046115;28;766;-73
2022/12/24 15:48:37;;;;;;;;;;;;;;;;;;5043516;28;960;-73
2022/12/24 15:51:04;;;;;;;;;;;;;;;;;;5043534;28;1937;-73
2022/12/24 15:53:30;;;;;;;;;;;;;;;;;;5040602;28;928;-72
2022/12/24 15:56:04;;;;;;;;;;;;;;;;;;5043159;28;908;-73
2022/12/24 15:58:32;;;;;;;;;;;;;;;;;;5041572;28;1120;-74
2022/12/24 16:01:05;;;;;;;;;;;;;;;;;;5040991;28;1293;-72
2022/12/24 16:03:32;;;;;;;;;;;;;;;;;;5044488;28;920;-75
2022/12/24 16:06:01;;;;;;;;;;;;;;;;;;5041601;28;885;-73
2022/12/24 16:08:31;;;;;;;;;;;;;;;;;;5041181;28;932;-72
2022/12/24 16:11:14;;;;;;;;;;;;;;;;;;5020145;28;1934;-72
2022/12/24 16:13:41;;;;;;;;;;;;;;;;;;5039750;28;1052;-73
2022/12/24 16:16:09;;;;;;;;;;;;;;;;;;5042654;28;865;-73
2022/12/24 16:18:35;;;;;;;;;;;;;;;;;;5043279;28;996;-73
2022/12/24 16:21:03;;;;;;;;;;;;;;;;;;5021417;28;1309;-74
2022/12/24 16:23:32;;;;;;;;;;;;;;;;;;5025768;28;1383;-72
2022/12/24 16:25:59;;;;;;;;;;;;;;;;;;5040695;28;1002;-73
2022/12/24 16:28:25;;;;;;;;;;;;;;;;;;5020021;28;1129;-73
2022/12/24 16:30:54;;;;;;;;;;;;;;;;;;5021846;28;1294;-72
2022/12/24 16:33:21;;;;;;;;;;;;;;;;;;5043454;28;2088;-72
2022/12/24 16:35:48;;;;;;;;;;;;;;;;;;5042004;28;806;-72
2022/12/24 16:38:16;;;;;;;;;;;;;;;;;;5039337;28;881;-72
2022/12/24 16:40:42;;;;;;;;;;;;;;;;;;5046080;28;1414;-72
2022/12/24 16:45:54;;;;;;;;;;;;;;;;;;4981421;28;1166;-73
2022/12/24 16:48:21;;;;;;;;;;;;;;;;;;4979992;28;993;-75
2022/12/24 16:50:48;;;;;;;;;;;;;;;;;;4999129;28;1410;-74
2022/12/24 16:53:16;;;;;;;;;;;;;;;;;;5048834;28;2039;-74
2022/12/24 16:55:44;;;;;;;;;;;;;;;;;;5046702;28;1000;-72
2022/12/24 16:58:11;;;;;;;;;;;;;;;;;;5048275;28;1104;-73
2022/12/24 17:00:38;;;;;;;;;;;;;;;;;;5044554;28;1332;-73
2022/12/24 17:03:05;;;;;;;;;;;;;;;;;;5021278;28;989;-73
2022/12/24 17:05:31;;;;;;;;;;;;;;;;;;5043753;28;881;-72
2022/12/24 17:07:59;;;;;;;;;;;;;;;;;;5047332;28;849;-73
2022/12/24 17:10:27;;;;;;;;;;;;;;;;;;5044451;28;1324;-74
2022/12/24 17:12:54;;;;;;;;;;;;;;;;;;5015416;28;1938;-74
2022/12/24 17:15:20;;;;;;;;;;;;;;;;;;5030678;28;1062;-73
2022/12/24 17:17:47;;;;;;;;;;;;;;;;;;5053499;28;846;-74
2022/12/24 17:20:13;;;;;;;;;;;;;;;;;;5044355;28;1325;-74
2022/12/24 17:22:40;;;;;;;;;;;;;;;;;;5040168;28;992;-73
2022/12/24 17:25:07;;;;;;;;;;;;;;;;;;5015959;28;1250;-73